sensor_id;sensor_type;location;lat;lon;timestamp;P1;durP1;ratioP1;P2;durP2;ratioP2
76023;SDS011;64719;52.124;6.226;2023-07-02T00:01:42;4.85;;;2.97;;
76023;SDS011;64719;52.124;6.226;2023-07-02T00:04:08;5.88;;;2.88;;
76023;SDS011;64719;52.124;6.226;2023-07-02T00:06:35;7.47;;;3.05;;
76023;SDS011;64719;52.124;6.226;2023-07-02T00:09:06;9.60;;;3.05;;
76023;SDS011;64719;52.124;6.226;2023-07-02T00:11:34;5.05;;;2.80;;
76023;SDS011;64719;52.124;6.226;2023-07-02T00:14:00;8.02;;;3.50;;
76023;SDS011;64719;52.124;6.226;2023-07-02T00:16:27;7.03;;;3.58;;
76023;SDS011;64719;52.124;6.226;2023-07-02T00:18:53;10.57;;;3.50;;
76023;SDS011;64719;52.124;6.226;2023-07-02T00:21:20;9.07;;;4.00;;
76023;SDS011;64719;52.124;6.226;2023-07-02T00:23:46;12.30;;;4.00;;
76023;SDS011;64719;52.124;6.226;2023-07-02T00:26:14;9.90;;;3.78;;
76023;SDS011;64719;52.124;6.226;2023-07-02T00:28:41;11.52;;;3.65;;
76023;SDS011;64719;52.124;6.226;2023-07-02T00:31:07;9.82;;;4.43;;
76023;SDS011;64719;52.124;6.226;2023-07-02T00:33:34;7.82;;;3.90;;
76023;SDS011;64719;52.124;6.226;2023-07-02T00:36:01;8.45;;;3.80;;
76023;SDS011;64719;52.124;6.226;2023-07-02T00:38:27;7.50;;;3.97;;
76023;SDS011;64719;52.124;6.226;2023-07-02T00:40:54;9.95;;;4.22;;
76023;SDS011;64719;52.124;6.226;2023-07-02T00:43:22;10.68;;;3.80;;
76023;SDS011;64719;52.124;6.226;2023-07-02T00:48:15;10.48;;;3.83;;
76023;SDS011;64719;52.124;6.226;2023-07-02T00:50:42;7.43;;;4.43;;
76023;SDS011;64719;52.124;6.226;2023-07-02T00:53:09;16.17;;;5.60;;
76023;SDS011;64719;52.124;6.226;2023-07-02T00:55:35;10.00;;;4.68;;
76023;SDS011;64719;52.124;6.226;2023-07-02T00:58:02;12.95;;;5.28;;
76023;SDS011;64719;52.124;6.226;2023-07-02T01:00:30;12.57;;;5.05;;
76023;SDS011;64719;52.124;6.226;2023-07-02T01:02:56;12.77;;;5.43;;
76023;SDS011;64719;52.124;6.226;2023-07-02T01:05:24;11.88;;;5.10;;
76023;SDS011;64719;52.124;6.226;2023-07-02T01:07:51;11.98;;;5.43;;
76023;SDS011;64719;52.124;6.226;2023-07-02T01:10:18;18.80;;;5.95;;
76023;SDS011;64719;52.124;6.226;2023-07-02T01:12:44;11.30;;;4.70;;
76023;SDS011;64719;52.124;6.226;2023-07-02T01:15:12;12.68;;;6.15;;
76023;SDS011;64719;52.124;6.226;2023-07-02T01:17:40;11.05;;;5.50;;
76023;SDS011;64719;52.124;6.226;2023-07-02T01:20:09;11.57;;;5.57;;
76023;SDS011;64719;52.124;6.226;2023-07-02T01:22:37;12.95;;;6.05;;
76023;SDS011;64719;52.124;6.226;2023-07-02T01:25:04;12.20;;;5.65;;
76023;SDS011;64719;52.124;6.226;2023-07-02T01:27:33;10.73;;;5.43;;
76023;SDS011;64719;52.124;6.226;2023-07-02T01:30:00;15.85;;;5.88;;
76023;SDS011;64719;52.124;6.226;2023-07-02T01:32:27;12.32;;;6.20;;
76023;SDS011;64719;52.124;6.226;2023-07-02T01:34:54;13.00;;;6.25;;
76023;SDS011;64719;52.124;6.226;2023-07-02T01:37:22;16.20;;;6.55;;
76023;SDS011;64719;52.124;6.226;2023-07-02T01:39:49;13.93;;;6.07;;
76023;SDS011;64719;52.124;6.226;2023-07-02T01:42:16;12.57;;;6.78;;
76023;SDS011;64719;52.124;6.226;2023-07-02T01:44:44;13.00;;;6.25;;
76023;SDS011;64719;52.124;6.226;2023-07-02T01:47:12;12.18;;;6.22;;
76023;SDS011;64719;52.124;6.226;2023-07-02T01:49:40;13.63;;;6.30;;
76023;SDS011;64719;52.124;6.226;2023-07-02T01:52:07;16.40;;;7.18;;
76023;SDS011;64719;52.124;6.226;2023-07-02T01:54:35;16.33;;;6.50;;
76023;SDS011;64719;52.124;6.226;2023-07-02T01:57:02;15.38;;;7.22;;
76023;SDS011;64719;52.124;6.226;2023-07-02T01:59:29;18.92;;;7.35;;
76023;SDS011;64719;52.124;6.226;2023-07-02T02:01:56;12.77;;;6.20;;
76023;SDS011;64719;52.124;6.226;2023-07-02T02:04:24;15.70;;;6.10;;
76023;SDS011;64719;52.124;6.226;2023-07-02T02:06:50;13.90;;;5.65;;
76023;SDS011;64719;52.124;6.226;2023-07-02T02:09:17;15.70;;;6.47;;
76023;SDS011;64719;52.124;6.226;2023-07-02T02:11:47;17.98;;;7.57;;
76023;SDS011;64719;52.124;6.226;2023-07-02T02:14:15;18.00;;;5.78;;
76023;SDS011;64719;52.124;6.226;2023-07-02T02:16:42;10.57;;;5.43;;
76023;SDS011;64719;52.124;6.226;2023-07-02T02:19:11;13.55;;;5.88;;
76023;SDS011;64719;52.124;6.226;2023-07-02T02:24:05;15.15;;;6.22;;
76023;SDS011;64719;52.124;6.226;2023-07-02T02:26:32;13.32;;;6.18;;
76023;SDS011;64719;52.124;6.226;2023-07-02T02:29:01;16.95;;;5.80;;
76023;SDS011;64719;52.124;6.226;2023-07-02T02:33:54;15.38;;;6.50;;
76023;SDS011;64719;52.124;6.226;2023-07-02T02:36:21;9.48;;;6.13;;
76023;SDS011;64719;52.124;6.226;2023-07-02T02:38:47;15.15;;;5.90;;
76023;SDS011;64719;52.124;6.226;2023-07-02T02:41:14;19.60;;;6.60;;
76023;SDS011;64719;52.124;6.226;2023-07-02T02:43:41;16.55;;;6.43;;
76023;SDS011;64719;52.124;6.226;2023-07-02T02:46:09;14.80;;;5.75;;
76023;SDS011;64719;52.124;6.226;2023-07-02T02:48:35;23.35;;;7.53;;
76023;SDS011;64719;52.124;6.226;2023-07-02T02:51:02;16.70;;;6.50;;
76023;SDS011;64719;52.124;6.226;2023-07-02T02:53:28;12.63;;;6.18;;
76023;SDS011;64719;52.124;6.226;2023-07-02T02:55:55;17.27;;;7.00;;
76023;SDS011;64719;52.124;6.226;2023-07-02T02:58:22;14.50;;;5.90;;
76023;SDS011;64719;52.124;6.226;2023-07-02T03:00:48;16.65;;;6.00;;
76023;SDS011;64719;52.124;6.226;2023-07-02T03:03:17;12.27;;;5.63;;
76023;SDS011;64719;52.124;6.226;2023-07-02T03:05:45;15.75;;;6.22;;
76023;SDS011;64719;52.124;6.226;2023-07-02T03:08:13;18.08;;;6.70;;
76023;SDS011;64719;52.124;6.226;2023-07-02T03:10:40;15.23;;;6.05;;
76023;SDS011;64719;52.124;6.226;2023-07-02T03:13:06;15.52;;;5.97;;
76023;SDS011;64719;52.124;6.226;2023-07-02T03:15:33;16.55;;;6.10;;
76023;SDS011;64719;52.124;6.226;2023-07-02T03:17:59;15.00;;;6.43;;
76023;SDS011;64719;52.124;6.226;2023-07-02T03:20:27;18.77;;;6.28;;
76023;SDS011;64719;52.124;6.226;2023-07-02T03:22:54;15.05;;;6.13;;
76023;SDS011;64719;52.124;6.226;2023-07-02T03:25:20;14.45;;;5.32;;
76023;SDS011;64719;52.124;6.226;2023-07-02T03:27:47;15.55;;;5.78;;
76023;SDS011;64719;52.124;6.226;2023-07-02T03:30:13;12.52;;;5.20;;
76023;SDS011;64719;52.124;6.226;2023-07-02T03:32:40;15.57;;;6.00;;
76023;SDS011;64719;52.124;6.226;2023-07-02T03:35:07;12.95;;;5.55;;
76023;SDS011;64719;52.124;6.226;2023-07-02T03:37:35;14.23;;;5.72;;
76023;SDS011;64719;52.124;6.226;2023-07-02T03:40:01;14.90;;;6.03;;
76023;SDS011;64719;52.124;6.226;2023-07-02T03:42:28;16.50;;;5.75;;
76023;SDS011;64719;52.124;6.226;2023-07-02T03:44:55;14.73;;;6.50;;
76023;SDS011;64719;52.124;6.226;2023-07-02T03:47:22;13.18;;;5.93;;
76023;SDS011;64719;52.124;6.226;2023-07-02T03:49:48;15.20;;;5.63;;
76023;SDS011;64719;52.124;6.226;2023-07-02T03:52:15;17.58;;;6.35;;
76023;SDS011;64719;52.124;6.226;2023-07-02T03:54:43;15.95;;;5.40;;
76023;SDS011;64719;52.124;6.226;2023-07-02T03:57:10;16.67;;;6.10;;
76023;SDS011;64719;52.124;6.226;2023-07-02T03:59:36;16.35;;;5.45;;
76023;SDS011;64719;52.124;6.226;2023-07-02T04:02:03;13.52;;;5.28;;
76023;SDS011;64719;52.124;6.226;2023-07-02T04:04:30;11.02;;;5.20;;
76023;SDS011;64719;52.124;6.226;2023-07-02T04:06:57;14.20;;;5.40;;
76023;SDS011;64719;52.124;6.226;2023-07-02T04:09:23;13.85;;;5.32;;
76023;SDS011;64719;52.124;6.226;2023-07-02T04:11:51;13.70;;;6.05;;
76023;SDS011;64719;52.124;6.226;2023-07-02T04:14:18;12.32;;;5.28;;
76023;SDS011;64719;52.124;6.226;2023-07-02T04:16:44;15.88;;;5.82;;
76023;SDS011;64719;52.124;6.226;2023-07-02T04:19:11;16.80;;;5.13;;
76023;SDS011;64719;52.124;6.226;2023-07-02T04:21:38;13.93;;;5.20;;
76023;SDS011;64719;52.124;6.226;2023-07-02T04:24:04;16.45;;;5.80;;
76023;SDS011;64719;52.124;6.226;2023-07-02T04:26:31;15.15;;;5.85;;
76023;SDS011;64719;52.124;6.226;2023-07-02T04:28:59;15.13;;;5.30;;
76023;SDS011;64719;52.124;6.226;2023-07-02T04:31:25;12.35;;;5.50;;
76023;SDS011;64719;52.124;6.226;2023-07-02T04:33:52;14.02;;;5.43;;
76023;SDS011;64719;52.124;6.226;2023-07-02T04:36:19;14.27;;;5.47;;
76023;SDS011;64719;52.124;6.226;2023-07-02T04:38:45;15.52;;;5.93;;
76023;SDS011;64719;52.124;6.226;2023-07-02T04:41:12;13.75;;;5.18;;
76023;SDS011;64719;52.124;6.226;2023-07-02T04:43:38;14.15;;;5.60;;
76023;SDS011;64719;52.124;6.226;2023-07-02T04:46:06;13.68;;;5.53;;
76023;SDS011;64719;52.124;6.226;2023-07-02T04:48:33;14.98;;;5.50;;
76023;SDS011;64719;52.124;6.226;2023-07-02T04:51:00;14.23;;;4.82;;
76023;SDS011;64719;52.124;6.226;2023-07-02T04:53:26;15.90;;;5.57;;
76023;SDS011;64719;52.124;6.226;2023-07-02T04:55:53;14.10;;;5.18;;
76023;SDS011;64719;52.124;6.226;2023-07-02T04:58:19;17.88;;;5.05;;
76023;SDS011;64719;52.124;6.226;2023-07-02T05:00:46;16.90;;;5.38;;
76023;SDS011;64719;52.124;6.226;2023-07-02T05:03:14;15.07;;;5.03;;
76023;SDS011;64719;52.124;6.226;2023-07-02T05:05:40;16.70;;;5.72;;
76023;SDS011;64719;52.124;6.226;2023-07-02T05:08:07;16.15;;;6.28;;
76023;SDS011;64719;52.124;6.226;2023-07-02T05:10:33;12.32;;;5.22;;
76023;SDS011;64719;52.124;6.226;2023-07-02T05:13:00;16.52;;;5.60;;
76023;SDS011;64719;52.124;6.226;2023-07-02T05:15:27;16.40;;;6.47;;
76023;SDS011;64719;52.124;6.226;2023-07-02T05:17:53;15.57;;;5.68;;
76023;SDS011;64719;52.124;6.226;2023-07-02T05:20:21;11.43;;;5.75;;
76023;SDS011;64719;52.124;6.226;2023-07-02T05:22:48;13.57;;;5.65;;
76023;SDS011;64719;52.124;6.226;2023-07-02T05:25:14;11.18;;;5.32;;
76023;SDS011;64719;52.124;6.226;2023-07-02T05:27:41;13.15;;;5.57;;
76023;SDS011;64719;52.124;6.226;2023-07-02T05:30:08;16.30;;;5.88;;
76023;SDS011;64719;52.124;6.226;2023-07-02T05:32:35;16.17;;;5.30;;
76023;SDS011;64719;52.124;6.226;2023-07-02T05:35:01;17.55;;;6.50;;
76023;SDS011;64719;52.124;6.226;2023-07-02T05:37:29;14.15;;;5.97;;
76023;SDS011;64719;52.124;6.226;2023-07-02T05:39:56;15.50;;;5.93;;
76023;SDS011;64719;52.124;6.226;2023-07-02T05:42:22;14.18;;;6.15;;
76023;SDS011;64719;52.124;6.226;2023-07-02T05:44:49;13.35;;;5.47;;
76023;SDS011;64719;52.124;6.226;2023-07-02T05:47:16;15.48;;;5.82;;
76023;SDS011;64719;52.124;6.226;2023-07-02T05:49:42;18.30;;;5.88;;
76023;SDS011;64719;52.124;6.226;2023-07-02T05:52:09;15.60;;;6.15;;
76023;SDS011;64719;52.124;6.226;2023-07-02T05:54:39;16.58;;;6.85;;
76023;SDS011;64719;52.124;6.226;2023-07-02T05:57:06;17.30;;;6.63;;
76023;SDS011;64719;52.124;6.226;2023-07-02T05:59:32;16.85;;;6.07;;
76023;SDS011;64719;52.124;6.226;2023-07-02T06:01:59;15.32;;;6.55;;
76023;SDS011;64719;52.124;6.226;2023-07-02T06:04:26;15.85;;;6.25;;
76023;SDS011;64719;52.124;6.226;2023-07-02T06:06:52;16.48;;;5.80;;
76023;SDS011;64719;52.124;6.226;2023-07-02T06:09:19;15.88;;;6.38;;
76023;SDS011;64719;52.124;6.226;2023-07-02T06:11:47;14.88;;;5.88;;
76023;SDS011;64719;52.124;6.226;2023-07-02T06:14:14;15.63;;;5.75;;
76023;SDS011;64719;52.124;6.226;2023-07-02T06:16:40;16.20;;;6.55;;
76023;SDS011;64719;52.124;6.226;2023-07-02T06:19:07;14.95;;;6.05;;
76023;SDS011;64719;52.124;6.226;2023-07-02T06:21:33;14.75;;;5.70;;
76023;SDS011;64719;52.124;6.226;2023-07-02T06:24:00;12.55;;;5.85;;
76023;SDS011;64719;52.124;6.226;2023-07-02T06:26:28;13.82;;;5.78;;
76023;SDS011;64719;52.124;6.226;2023-07-02T06:28:56;13.32;;;6.50;;
76023;SDS011;64719;52.124;6.226;2023-07-02T06:31:23;10.73;;;5.25;;
76023;SDS011;64719;52.124;6.226;2023-07-02T06:33:50;13.73;;;5.95;;
76023;SDS011;64719;52.124;6.226;2023-07-02T06:36:16;14.23;;;5.45;;
76023;SDS011;64719;52.124;6.226;2023-07-02T06:38:43;14.93;;;5.50;;
76023;SDS011;64719;52.124;6.226;2023-07-02T06:41:10;14.55;;;6.03;;
76023;SDS011;64719;52.124;6.226;2023-07-02T06:43:37;14.95;;;5.50;;
76023;SDS011;64719;52.124;6.226;2023-07-02T06:46:05;12.60;;;5.68;;
76023;SDS011;64719;52.124;6.226;2023-07-02T06:48:31;14.15;;;5.97;;
76023;SDS011;64719;52.124;6.226;2023-07-02T06:50:58;13.73;;;5.25;;
76023;SDS011;64719;52.124;6.226;2023-07-02T06:53:24;13.07;;;5.85;;
76023;SDS011;64719;52.124;6.226;2023-07-02T06:55:51;12.98;;;5.85;;
76023;SDS011;64719;52.124;6.226;2023-07-02T06:58:18;13.25;;;5.53;;
76023;SDS011;64719;52.124;6.226;2023-07-02T07:00:44;12.00;;;5.63;;
76023;SDS011;64719;52.124;6.226;2023-07-02T07:03:12;17.83;;;5.47;;
76023;SDS011;64719;52.124;6.226;2023-07-02T07:05:39;13.00;;;5.60;;
76023;SDS011;64719;52.124;6.226;2023-07-02T07:08:06;12.13;;;5.57;;
76023;SDS011;64719;52.124;6.226;2023-07-02T07:10:32;11.60;;;5.32;;
76023;SDS011;64719;52.124;6.226;2023-07-02T07:13:00;12.27;;;5.60;;
76023;SDS011;64719;52.124;6.226;2023-07-02T07:15:29;11.00;;;5.40;;
76023;SDS011;64719;52.124;6.226;2023-07-02T07:17:58;14.80;;;5.75;;
76023;SDS011;64719;52.124;6.226;2023-07-02T07:20:26;11.27;;;5.70;;
76023;SDS011;64719;52.124;6.226;2023-07-02T07:22:52;12.73;;;5.47;;
76023;SDS011;64719;52.124;6.226;2023-07-02T07:25:19;11.57;;;5.25;;
76023;SDS011;64719;52.124;6.226;2023-07-02T07:27:45;13.35;;;5.65;;
76023;SDS011;64719;52.124;6.226;2023-07-02T07:30:12;12.00;;;5.50;;
76023;SDS011;64719;52.124;6.226;2023-07-02T07:32:39;11.43;;;5.07;;
76023;SDS011;64719;52.124;6.226;2023-07-02T07:35:06;11.55;;;4.88;;
76023;SDS011;64719;52.124;6.226;2023-07-02T07:37:34;12.98;;;5.38;;
76023;SDS011;64719;52.124;6.226;2023-07-02T07:40:01;12.95;;;5.38;;
76023;SDS011;64719;52.124;6.226;2023-07-02T07:42:28;10.55;;;5.05;;
76023;SDS011;64719;52.124;6.226;2023-07-02T07:44:55;10.23;;;4.40;;
76023;SDS011;64719;52.124;6.226;2023-07-02T07:47:21;11.73;;;5.25;;
76023;SDS011;64719;52.124;6.226;2023-07-02T07:49:48;12.68;;;5.22;;
76023;SDS011;64719;52.124;6.226;2023-07-02T07:52:14;11.27;;;4.90;;
76023;SDS011;64719;52.124;6.226;2023-07-02T07:54:42;12.75;;;5.03;;
76023;SDS011;64719;52.124;6.226;2023-07-02T07:57:09;13.35;;;5.15;;
76023;SDS011;64719;52.124;6.226;2023-07-02T07:59:36;15.00;;;5.38;;
76023;SDS011;64719;52.124;6.226;2023-07-02T08:02:02;10.15;;;4.65;;
76023;SDS011;64719;52.124;6.226;2023-07-02T08:04:29;12.10;;;4.70;;
76023;SDS011;64719;52.124;6.226;2023-07-02T08:06:56;12.13;;;4.60;;
76023;SDS011;64719;52.124;6.226;2023-07-02T08:09:23;17.65;;;5.32;;
76023;SDS011;64719;52.124;6.226;2023-07-02T08:11:51;14.82;;;5.53;;
76023;SDS011;64719;52.124;6.226;2023-07-02T08:14:18;13.95;;;5.40;;
76023;SDS011;64719;52.124;6.226;2023-07-02T08:16:44;10.05;;;4.43;;
76023;SDS011;64719;52.124;6.226;2023-07-02T08:19:11;11.90;;;4.90;;
76023;SDS011;64719;52.124;6.226;2023-07-02T08:21:37;11.70;;;4.63;;
76023;SDS011;64719;52.124;6.226;2023-07-02T08:24:04;11.07;;;4.72;;
76023;SDS011;64719;52.124;6.226;2023-07-02T08:29:00;11.27;;;4.65;;
76023;SDS011;64719;52.124;6.226;2023-07-02T08:31:27;11.35;;;4.70;;
76023;SDS011;64719;52.124;6.226;2023-07-02T08:33:53;11.05;;;4.80;;
76023;SDS011;64719;52.124;6.226;2023-07-02T08:36:20;10.25;;;5.25;;
76023;SDS011;64719;52.124;6.226;2023-07-02T08:38:47;12.52;;;4.82;;
76023;SDS011;64719;52.124;6.226;2023-07-02T08:41:13;9.73;;;4.47;;
76023;SDS011;64719;52.124;6.226;2023-07-02T08:43:41;12.90;;;5.05;;
76023;SDS011;64719;52.124;6.226;2023-07-02T08:46:09;13.30;;;4.68;;
76023;SDS011;64719;52.124;6.226;2023-07-02T08:48:36;9.23;;;4.28;;
76023;SDS011;64719;52.124;6.226;2023-07-02T08:51:03;15.05;;;4.35;;
76023;SDS011;64719;52.124;6.226;2023-07-02T08:53:30;10.98;;;4.32;;
76023;SDS011;64719;52.124;6.226;2023-07-02T08:55:59;11.55;;;4.68;;
76023;SDS011;64719;52.124;6.226;2023-07-02T08:58:25;9.05;;;4.10;;
76023;SDS011;64719;52.124;6.226;2023-07-02T09:01:08;12.13;;;4.70;;
76023;SDS011;64719;52.124;6.226;2023-07-02T09:03:37;14.68;;;4.70;;
76023;SDS011;64719;52.124;6.226;2023-07-02T09:06:05;10.45;;;4.00;;
76023;SDS011;64719;52.124;6.226;2023-07-02T09:08:33;9.15;;;3.92;;
76023;SDS011;64719;52.124;6.226;2023-07-02T09:11:09;9.73;;;4.20;;
76023;SDS011;64719;52.124;6.226;2023-07-02T09:13:43;9.48;;;4.22;;
76023;SDS011;64719;52.124;6.226;2023-07-02T09:16:26;7.72;;;4.40;;
76023;SDS011;64719;52.124;6.226;2023-07-02T09:19:01;10.07;;;3.97;;
76023;SDS011;64719;52.124;6.226;2023-07-02T09:21:37;11.32;;;4.18;;
76023;SDS011;64719;52.124;6.226;2023-07-02T09:24:12;11.02;;;4.30;;
76023;SDS011;64719;52.124;6.226;2023-07-02T09:26:42;10.90;;;4.10;;
76023;SDS011;64719;52.124;6.226;2023-07-02T09:29:10;9.85;;;3.88;;
76023;SDS011;64719;52.124;6.226;2023-07-02T09:31:46;8.15;;;3.97;;
76023;SDS011;64719;52.124;6.226;2023-07-02T09:34:13;8.13;;;3.90;;
76023;SDS011;64719;52.124;6.226;2023-07-02T09:36:40;8.05;;;4.22;;
76023;SDS011;64719;52.124;6.226;2023-07-02T09:39:07;8.95;;;3.80;;
76023;SDS011;64719;52.124;6.226;2023-07-02T09:41:35;6.88;;;3.85;;
76023;SDS011;64719;52.124;6.226;2023-07-02T09:44:02;11.15;;;4.05;;
76023;SDS011;64719;52.124;6.226;2023-07-02T09:46:29;7.65;;;4.07;;
76023;SDS011;64719;52.124;6.226;2023-07-02T09:48:59;8.27;;;3.63;;
76023;SDS011;64719;52.124;6.226;2023-07-02T09:51:26;7.55;;;3.95;;
76023;SDS011;64719;52.124;6.226;2023-07-02T09:53:54;9.25;;;4.13;;
76023;SDS011;64719;52.124;6.226;2023-07-02T09:56:20;6.50;;;3.80;;
76023;SDS011;64719;52.124;6.226;2023-07-02T09:58:47;8.05;;;3.85;;
76023;SDS011;64719;52.124;6.226;2023-07-02T10:01:14;8.98;;;3.92;;
76023;SDS011;64719;52.124;6.226;2023-07-02T10:03:40;8.63;;;3.90;;
76023;SDS011;64719;52.124;6.226;2023-07-02T10:06:08;7.97;;;3.80;;
76023;SDS011;64719;52.124;6.226;2023-07-02T10:08:35;6.82;;;3.80;;
76023;SDS011;64719;52.124;6.226;2023-07-02T10:11:08;7.43;;;3.60;;
76023;SDS011;64719;52.124;6.226;2023-07-02T10:13:36;6.18;;;3.40;;
76023;SDS011;64719;52.124;6.226;2023-07-02T10:16:03;7.20;;;3.55;;
76023;SDS011;64719;52.124;6.226;2023-07-02T10:18:31;6.70;;;3.47;;
76023;SDS011;64719;52.124;6.226;2023-07-02T10:20:57;10.93;;;3.65;;
76023;SDS011;64719;52.124;6.226;2023-07-02T10:23:33;6.80;;;3.67;;
76023;SDS011;64719;52.124;6.226;2023-07-02T10:26:09;8.60;;;3.28;;
76023;SDS011;64719;52.124;6.226;2023-07-02T10:28:36;8.55;;;3.95;;
76023;SDS011;64719;52.124;6.226;2023-07-02T10:31:03;7.95;;;3.85;;
76023;SDS011;64719;52.124;6.226;2023-07-02T10:33:29;6.85;;;3.80;;
76023;SDS011;64719;52.124;6.226;2023-07-02T10:35:56;9.00;;;3.70;;
76023;SDS011;64719;52.124;6.226;2023-07-02T10:38:23;7.53;;;3.65;;
76023;SDS011;64719;52.124;6.226;2023-07-02T10:40:55;7.30;;;3.83;;
76023;SDS011;64719;52.124;6.226;2023-07-02T10:43:26;6.93;;;3.60;;
76023;SDS011;64719;52.124;6.226;2023-07-02T10:45:53;7.25;;;3.28;;
76023;SDS011;64719;52.124;6.226;2023-07-02T10:48:20;5.95;;;3.03;;
76023;SDS011;64719;52.124;6.226;2023-07-02T10:50:47;6.78;;;3.42;;
76023;SDS011;64719;52.124;6.226;2023-07-02T10:53:15;7.68;;;3.53;;
76023;SDS011;64719;52.124;6.226;2023-07-02T10:55:42;7.63;;;3.00;;
76023;SDS011;64719;52.124;6.226;2023-07-02T10:58:11;7.63;;;3.40;;
76023;SDS011;64719;52.124;6.226;2023-07-02T11:00:45;6.22;;;2.80;;
76023;SDS011;64719;52.124;6.226;2023-07-02T11:03:16;6.15;;;2.85;;
76023;SDS011;64719;52.124;6.226;2023-07-02T11:05:44;6.05;;;2.83;;
76023;SDS011;64719;52.124;6.226;2023-07-02T11:08:11;6.93;;;2.70;;
76023;SDS011;64719;52.124;6.226;2023-07-02T11:10:38;5.63;;;2.47;;
76023;SDS011;64719;52.124;6.226;2023-07-02T11:13:12;5.32;;;2.80;;
76023;SDS011;64719;52.124;6.226;2023-07-02T11:15:39;6.13;;;2.63;;
76023;SDS011;64719;52.124;6.226;2023-07-02T11:18:10;5.53;;;2.50;;
76023;SDS011;64719;52.124;6.226;2023-07-02T11:20:37;6.80;;;2.75;;
76023;SDS011;64719;52.124;6.226;2023-07-02T11:23:04;6.50;;;2.80;;
76023;SDS011;64719;52.124;6.226;2023-07-02T11:25:31;5.50;;;3.05;;
76023;SDS011;64719;52.124;6.226;2023-07-02T11:28:04;5.63;;;2.97;;
76023;SDS011;64719;52.124;6.226;2023-07-02T11:30:32;6.32;;;2.70;;
76023;SDS011;64719;52.124;6.226;2023-07-02T11:33:00;5.53;;;2.80;;
76023;SDS011;64719;52.124;6.226;2023-07-02T11:35:34;5.97;;;2.85;;
76023;SDS011;64719;52.124;6.226;2023-07-02T11:38:01;12.25;;;3.35;;
76023;SDS011;64719;52.124;6.226;2023-07-02T11:40:28;5.93;;;3.03;;
76023;SDS011;64719;52.124;6.226;2023-07-02T11:42:54;5.85;;;2.80;;
76023;SDS011;64719;52.124;6.226;2023-07-02T11:45:21;6.95;;;2.90;;
76023;SDS011;64719;52.124;6.226;2023-07-02T11:47:49;5.60;;;2.70;;
76023;SDS011;64719;52.124;6.226;2023-07-02T11:50:16;4.85;;;2.65;;
76023;SDS011;64719;52.124;6.226;2023-07-02T11:52:42;5.07;;;2.63;;
76023;SDS011;64719;52.124;6.226;2023-07-02T11:55:09;4.90;;;3.00;;
76023;SDS011;64719;52.124;6.226;2023-07-02T11:57:35;5.10;;;2.70;;
76023;SDS011;64719;52.124;6.226;2023-07-02T12:00:02;5.50;;;2.72;;
76023;SDS011;64719;52.124;6.226;2023-07-02T12:02:29;5.07;;;2.88;;
76023;SDS011;64719;52.124;6.226;2023-07-02T12:04:57;6.65;;;3.03;;
76023;SDS011;64719;52.124;6.226;2023-07-02T12:07:24;5.60;;;2.85;;
76023;SDS011;64719;52.124;6.226;2023-07-02T12:09:50;6.10;;;2.78;;
76023;SDS011;64719;52.124;6.226;2023-07-02T12:12:17;5.85;;;2.70;;
76023;SDS011;64719;52.124;6.226;2023-07-02T12:14:43;5.55;;;2.80;;
76023;SDS011;64719;52.124;6.226;2023-07-02T12:17:10;5.53;;;2.55;;
76023;SDS011;64719;52.124;6.226;2023-07-02T12:19:37;7.07;;;2.70;;
76023;SDS011;64719;52.124;6.226;2023-07-02T12:22:05;5.57;;;2.40;;
76023;SDS011;64719;52.124;6.226;2023-07-02T12:24:32;4.95;;;2.55;;
76023;SDS011;64719;52.124;6.226;2023-07-02T12:26:59;4.25;;;2.28;;
76023;SDS011;64719;52.124;6.226;2023-07-02T12:29:25;4.40;;;2.40;;
76023;SDS011;64719;52.124;6.226;2023-07-02T12:31:52;6.32;;;2.80;;
76023;SDS011;64719;52.124;6.226;2023-07-02T12:34:18;5.18;;;2.38;;
76023;SDS011;64719;52.124;6.226;2023-07-02T12:36:45;5.88;;;2.90;;
76023;SDS011;64719;52.124;6.226;2023-07-02T12:39:13;8.40;;;3.28;;
76023;SDS011;64719;52.124;6.226;2023-07-02T12:41:40;5.57;;;2.72;;
76023;SDS011;64719;52.124;6.226;2023-07-02T12:44:07;7.10;;;2.83;;
76023;SDS011;64719;52.124;6.226;2023-07-02T12:46:33;7.30;;;3.30;;
76023;SDS011;64719;52.124;6.226;2023-07-02T12:49:00;8.00;;;2.78;;
76023;SDS011;64719;52.124;6.226;2023-07-02T12:51:26;6.90;;;3.13;;
76023;SDS011;64719;52.124;6.226;2023-07-02T12:53:53;4.85;;;2.92;;
76023;SDS011;64719;52.124;6.226;2023-07-02T12:56:21;6.10;;;3.45;;
76023;SDS011;64719;52.124;6.226;2023-07-02T12:58:47;5.30;;;2.65;;
76023;SDS011;64719;52.124;6.226;2023-07-02T13:01:16;5.45;;;3.17;;
76023;SDS011;64719;52.124;6.226;2023-07-02T13:03:44;6.18;;;3.03;;
76023;SDS011;64719;52.124;6.226;2023-07-02T13:06:12;5.53;;;2.75;;
76023;SDS011;64719;52.124;6.226;2023-07-02T13:08:38;9.30;;;3.00;;
76023;SDS011;64719;52.124;6.226;2023-07-02T13:11:05;5.22;;;3.00;;
76023;SDS011;64719;52.124;6.226;2023-07-02T13:13:33;5.95;;;3.42;;
76023;SDS011;64719;52.124;6.226;2023-07-02T13:16:01;6.90;;;2.80;;
76023;SDS011;64719;52.124;6.226;2023-07-02T13:18:27;7.20;;;3.00;;
76023;SDS011;64719;52.124;6.226;2023-07-02T13:20:54;5.95;;;3.15;;
76023;SDS011;64719;52.124;6.226;2023-07-02T13:23:21;6.32;;;3.40;;
76023;SDS011;64719;52.124;6.226;2023-07-02T13:25:47;6.63;;;2.88;;
76023;SDS011;64719;52.124;6.226;2023-07-02T13:28:14;8.07;;;3.45;;
76023;SDS011;64719;52.124;6.226;2023-07-02T13:30:42;6.32;;;3.03;;
76023;SDS011;64719;52.124;6.226;2023-07-02T13:33:09;7.30;;;3.35;;
76023;SDS011;64719;52.124;6.226;2023-07-02T13:35:35;6.72;;;2.75;;
76023;SDS011;64719;52.124;6.226;2023-07-02T13:38:03;6.45;;;3.25;;
76023;SDS011;64719;52.124;6.226;2023-07-02T13:40:30;5.97;;;2.80;;
76023;SDS011;64719;52.124;6.226;2023-07-02T13:42:57;8.38;;;3.33;;
76023;SDS011;64719;52.124;6.226;2023-07-02T13:45:23;5.47;;;2.72;;
76023;SDS011;64719;52.124;6.226;2023-07-02T13:47:51;6.65;;;2.95;;
76023;SDS011;64719;52.124;6.226;2023-07-02T13:50:18;6.55;;;3.33;;
76023;SDS011;64719;52.124;6.226;2023-07-02T13:52:44;6.88;;;3.17;;
76023;SDS011;64719;52.124;6.226;2023-07-02T13:55:13;5.40;;;2.83;;
76023;SDS011;64719;52.124;6.226;2023-07-02T13:57:39;6.43;;;2.80;;
76023;SDS011;64719;52.124;6.226;2023-07-02T14:00:08;5.72;;;2.83;;
76023;SDS011;64719;52.124;6.226;2023-07-02T14:02:35;4.38;;;2.78;;
76023;SDS011;64719;52.124;6.226;2023-07-02T14:05:02;5.78;;;3.10;;
76023;SDS011;64719;52.124;6.226;2023-07-02T14:07:29;5.47;;;2.97;;
76023;SDS011;64719;52.124;6.226;2023-07-02T14:09:55;4.57;;;3.20;;
76023;SDS011;64719;52.124;6.226;2023-07-02T14:12:22;4.82;;;2.58;;
76023;SDS011;64719;52.124;6.226;2023-07-02T14:14:49;6.40;;;2.88;;
76023;SDS011;64719;52.124;6.226;2023-07-02T14:17:17;4.68;;;2.67;;
76023;SDS011;64719;52.124;6.226;2023-07-02T14:19:44;6.72;;;3.05;;
76023;SDS011;64719;52.124;6.226;2023-07-02T14:22:10;7.15;;;3.40;;
76023;SDS011;64719;52.124;6.226;2023-07-02T14:24:37;6.68;;;3.08;;
76023;SDS011;64719;52.124;6.226;2023-07-02T14:27:04;5.70;;;2.80;;
76023;SDS011;64719;52.124;6.226;2023-07-02T14:29:31;9.60;;;3.60;;
76023;SDS011;64719;52.124;6.226;2023-07-02T14:31:57;7.47;;;2.80;;
76023;SDS011;64719;52.124;6.226;2023-07-02T14:34:25;6.50;;;2.60;;
76023;SDS011;64719;52.124;6.226;2023-07-02T14:36:52;6.15;;;3.08;;
76023;SDS011;64719;52.124;6.226;2023-07-02T14:39:19;7.45;;;3.30;;
76023;SDS011;64719;52.124;6.226;2023-07-02T14:41:45;10.25;;;2.80;;
76023;SDS011;64719;52.124;6.226;2023-07-02T14:44:12;5.32;;;2.70;;
76023;SDS011;64719;52.124;6.226;2023-07-02T14:46:39;6.75;;;3.17;;
76023;SDS011;64719;52.124;6.226;2023-07-02T14:49:05;6.63;;;3.00;;
76023;SDS011;64719;52.124;6.226;2023-07-02T14:51:33;6.38;;;3.13;;